createdAt,value
2023-02-03T00:00:44.774Z,7.37
2023-02-03T00:03:13.071Z,6.70
2023-02-03T00:05:41.959Z,7.00
2023-02-03T00:08:10.546Z,7.30
2023-02-03T00:10:39.637Z,6.72
2023-02-03T00:13:09.151Z,6.20
2023-02-03T00:15:37.350Z,6.83
2023-02-03T00:18:05.602Z,7.00
2023-02-03T00:20:33.813Z,7.10
2023-02-03T00:23:06.005Z,6.47
2023-02-03T00:25:34.447Z,6.22
2023-02-03T00:28:02.925Z,5.92
2023-02-03T00:30:31.143Z,6.72
2023-02-03T00:32:59.330Z,6.40
2023-02-03T00:35:27.543Z,6.40
2023-02-03T00:37:56.427Z,6.33
2023-02-03T00:40:26.023Z,5.80
2023-02-03T00:42:54.837Z,6.42
2023-02-03T00:45:24.097Z,6.15
2023-02-03T00:47:52.372Z,5.80
2023-02-03T00:50:20.603Z,6.17
2023-02-03T00:52:48.814Z,5.67
2023-02-03T00:55:17.025Z,5.70
2023-02-03T00:57:45.227Z,5.53
2023-02-03T01:00:13.663Z,4.92
2023-02-03T01:02:41.903Z,5.50
2023-02-03T01:05:10.260Z,6.03
2023-02-03T01:07:38.626Z,6.28
2023-02-03T01:10:07.006Z,5.33
2023-02-03T01:12:35.251Z,5.35
2023-02-03T01:15:03.446Z,5.10
2023-02-03T01:17:31.674Z,6.08
2023-02-03T01:19:59.972Z,5.30
2023-02-03T01:22:30.169Z,4.90
2023-02-03T01:24:58.382Z,5.17
2023-02-03T01:27:26.705Z,4.78
2023-02-03T01:29:54.912Z,4.97
2023-02-03T01:32:23.139Z,5.08
2023-02-03T01:34:51.347Z,4.97
2023-02-03T01:37:19.624Z,4.78
2023-02-03T01:39:47.829Z,4.83
2023-02-03T01:42:16.415Z,5.00
2023-02-03T01:44:47.345Z,4.80
2023-02-03T01:47:17.052Z,4.70
2023-02-03T01:49:46.818Z,4.95
2023-02-03T01:52:15.591Z,4.80
2023-02-03T01:54:45.698Z,4.90
2023-02-03T01:57:15.427Z,5.40
2023-02-03T01:59:44.008Z,4.10
2023-02-03T02:02:12.939Z,4.45
2023-02-03T02:04:42.659Z,4.40
2023-02-03T02:07:10.933Z,4.47
2023-02-03T02:09:39.149Z,4.20
2023-02-03T02:12:07.457Z,4.17
2023-02-03T02:14:35.678Z,4.22
2023-02-03T02:17:14.242Z,4.22
2023-02-03T02:19:43.983Z,4.12
2023-02-03T02:22:16.682Z,4.10
2023-02-03T02:27:16.891Z,3.85
2023-02-03T02:29:46.638Z,3.65
2023-02-03T02:32:16.398Z,3.77
2023-02-03T02:34:48.802Z,3.77
2023-02-03T02:37:27.197Z,4.42
2023-02-03T02:40:08.957Z,4.28
2023-02-03T02:42:38.710Z,3.77
2023-02-03T02:45:11.378Z,4.03
2023-02-03T02:50:11.543Z,3.83
2023-02-03T02:52:41.287Z,3.77
2023-02-03T02:55:14.109Z,4.00
2023-02-03T02:57:42.683Z,3.67
2023-02-03T03:00:12.621Z,4.65
2023-02-03T03:02:41.004Z,4.83
2023-02-03T03:05:11.046Z,3.80
2023-02-03T03:07:49.817Z,4.47
2023-02-03T03:10:21.238Z,3.83
2023-02-03T03:12:50.973Z,3.58
2023-02-03T03:15:22.065Z,4.80
2023-02-03T03:17:51.814Z,4.87
2023-02-03T03:20:21.587Z,4.58
2023-02-03T03:22:51.315Z,4.30
2023-02-03T03:25:21.071Z,5.00
2023-02-03T03:27:50.375Z,4.75
2023-02-03T03:30:22.921Z,5.50
2023-02-03T03:35:19.472Z,5.97
2023-02-03T03:37:49.220Z,5.20
2023-02-03T03:40:25.213Z,5.47
2023-02-03T03:42:58.034Z,5.22
2023-02-03T03:48:07.358Z,5.45
2023-02-03T03:50:37.114Z,4.42
2023-02-03T03:53:06.598Z,5.97
2023-02-03T03:55:36.386Z,5.22
2023-02-03T03:58:06.453Z,5.47
2023-02-03T04:00:36.141Z,6.15
2023-02-03T04:03:05.915Z,4.85
2023-02-03T04:05:34.894Z,5.83
2023-02-03T04:08:03.650Z,4.95
2023-02-03T04:10:33.129Z,5.35
2023-02-03T04:13:01.607Z,4.80
2023-02-03T04:15:30.187Z,4.45
2023-02-03T04:17:58.400Z,4.67
2023-02-03T04:20:26.865Z,5.17
2023-02-03T04:22:55.189Z,4.53
2023-02-03T04:25:23.676Z,4.20
2023-02-03T04:27:51.914Z,4.28
2023-02-03T04:30:20.087Z,3.92
2023-02-03T04:32:48.555Z,3.80
2023-02-03T04:35:16.841Z,4.10
2023-02-03T04:37:45.109Z,4.25
2023-02-03T04:40:13.729Z,3.70
2023-02-03T04:42:42.027Z,4.03
2023-02-03T04:45:11.105Z,5.30
2023-02-03T04:47:40.655Z,5.00
2023-02-03T04:50:09.144Z,3.35
2023-02-03T04:52:37.355Z,3.70
2023-02-03T04:55:05.728Z,4.05
2023-02-03T04:57:34.423Z,3.60
2023-02-03T05:00:02.669Z,3.80
2023-02-03T05:02:30.850Z,4.00
2023-02-03T05:04:59.051Z,4.10
2023-02-03T05:07:27.255Z,4.25
2023-02-03T05:09:55.474Z,3.70
2023-02-03T05:12:23.677Z,3.45
2023-02-03T05:14:51.888Z,3.65
2023-02-03T05:17:20.095Z,3.98
2023-02-03T05:19:48.335Z,3.52
2023-02-03T05:22:17.080Z,3.70
2023-02-03T05:24:45.298Z,3.35
2023-02-03T05:27:13.508Z,3.70
2023-02-03T05:29:41.721Z,3.75
2023-02-03T05:32:09.995Z,4.55
2023-02-03T05:34:39.279Z,3.37
2023-02-03T05:37:08.101Z,3.70
2023-02-03T05:39:36.318Z,2.83
2023-02-03T05:42:04.610Z,3.40
2023-02-03T05:44:32.835Z,3.22
2023-02-03T05:47:01.080Z,3.20
2023-02-03T05:49:29.289Z,3.08
2023-02-03T05:51:57.567Z,2.80
2023-02-03T05:54:25.793Z,3.72
2023-02-03T05:56:54.011Z,3.37
2023-02-03T05:59:22.269Z,2.87
2023-02-03T06:01:50.479Z,3.12
2023-02-03T06:04:18.781Z,2.67
2023-02-03T06:06:47.544Z,2.37
2023-02-03T06:09:15.776Z,2.75
2023-02-03T06:11:44.075Z,3.20
2023-02-03T06:14:12.301Z,3.08
2023-02-03T06:16:40.569Z,2.40
2023-02-03T06:19:08.728Z,2.60
2023-02-03T06:21:36.930Z,2.60
2023-02-03T06:24:05.678Z,2.17
2023-02-03T06:26:33.909Z,2.30
2023-02-03T06:29:02.166Z,2.20
2023-02-03T06:31:30.433Z,2.58
2023-02-03T06:33:59.433Z,1.95
2023-02-03T06:36:27.627Z,2.08
2023-02-03T06:38:55.863Z,2.45
2023-02-03T06:41:25.704Z,2.15
2023-02-03T06:43:53.920Z,1.80
2023-02-03T06:46:22.244Z,2.60
2023-02-03T06:48:50.504Z,2.37
2023-02-03T06:51:18.746Z,2.17
2023-02-03T06:53:47.022Z,2.70
2023-02-03T06:56:15.268Z,2.35
2023-02-03T06:58:44.336Z,2.77
2023-02-03T07:01:12.634Z,2.02
2023-02-03T07:03:40.813Z,2.87
2023-02-03T07:06:09.017Z,2.00
2023-02-03T07:08:37.273Z,2.02
2023-02-03T07:11:05.478Z,2.60
2023-02-03T07:13:33.700Z,1.90
2023-02-03T07:16:01.969Z,2.30
2023-02-03T07:18:46.424Z,2.05
2023-02-03T07:21:00.942Z,2.10
2023-02-03T07:23:29.170Z,2.12
2023-02-03T07:25:58.916Z,2.40
2023-02-03T07:28:27.143Z,2.45
2023-02-03T07:30:55.418Z,2.22
2023-02-03T07:33:23.910Z,2.50
2023-02-03T07:35:53.202Z,2.10
2023-02-03T07:38:21.791Z,2.35
2023-02-03T07:40:50.098Z,2.00
2023-02-03T07:43:18.369Z,2.40
2023-02-03T07:45:46.590Z,2.37
2023-02-03T07:48:14.956Z,2.62
2023-02-03T07:50:43.173Z,2.40
2023-02-03T07:53:11.474Z,2.42
2023-02-03T07:55:40.059Z,2.40
2023-02-03T07:58:08.267Z,2.33
2023-02-03T08:00:36.485Z,2.80
2023-02-03T08:03:04.880Z,2.22
2023-02-03T08:05:33.073Z,2.37
2023-02-03T08:08:01.364Z,2.65
2023-02-03T08:10:29.934Z,2.37
2023-02-03T08:12:58.402Z,2.58
2023-02-03T08:15:26.612Z,2.67
2023-02-03T08:17:54.835Z,2.40
2023-02-03T08:20:23.023Z,2.40
2023-02-03T08:22:51.243Z,2.25
2023-02-03T08:25:21.718Z,2.42
2023-02-03T08:27:49.459Z,2.45
2023-02-03T08:30:17.641Z,2.10
2023-02-03T08:32:46.009Z,2.22
2023-02-03T08:35:14.195Z,2.05
2023-02-03T08:37:42.582Z,1.55
2023-02-03T08:40:11.548Z,2.37
2023-02-03T08:42:39.762Z,2.45
2023-02-03T08:45:08.270Z,1.90
2023-02-03T08:47:38.202Z,3.02
2023-02-03T08:50:07.579Z,2.40
2023-02-03T08:52:35.781Z,2.42
2023-02-03T08:55:04.277Z,2.25
2023-02-03T08:57:34.053Z,2.45
2023-02-03T09:00:02.320Z,2.47
2023-02-03T09:02:30.641Z,3.27
2023-02-03T09:04:58.997Z,2.52
2023-02-03T09:07:27.594Z,2.47
2023-02-03T09:09:55.897Z,2.98
2023-02-03T09:12:24.205Z,2.80
2023-02-03T09:14:52.673Z,2.90
2023-02-03T09:17:20.963Z,2.60
2023-02-03T09:19:49.264Z,2.67
2023-02-03T09:22:17.527Z,2.70
2023-02-03T09:24:45.835Z,2.92
2023-02-03T09:27:14.054Z,3.00
2023-02-03T09:29:42.261Z,2.98
2023-02-03T09:32:10.686Z,2.98
2023-02-03T09:34:40.619Z,3.75
2023-02-03T09:37:09.058Z,3.17
2023-02-03T09:39:37.419Z,3.00
2023-02-03T09:42:10.424Z,3.40
2023-02-03T09:44:43.169Z,3.20
2023-02-03T09:47:15.838Z,3.50
2023-02-03T09:49:47.003Z,3.60
2023-02-03T09:52:16.814Z,3.12
2023-02-03T09:54:46.620Z,4.28
2023-02-03T09:57:24.564Z,4.65
2023-02-03T09:59:54.418Z,3.17
2023-02-03T10:02:29.889Z,3.52
2023-02-03T10:05:02.195Z,3.60
2023-02-03T10:07:37.885Z,3.52
2023-02-03T10:10:23.883Z,4.08
2023-02-03T10:13:11.760Z,3.80
2023-02-03T10:15:41.505Z,3.98
2023-02-03T10:18:11.264Z,4.40
2023-02-03T10:20:47.018Z,4.47
2023-02-03T10:23:19.696Z,4.30
2023-02-03T10:28:20.264Z,4.45
2023-02-03T10:30:58.843Z,4.70
2023-02-03T10:33:28.720Z,4.12
2023-02-03T10:36:07.609Z,5.15
2023-02-03T10:38:37.411Z,5.28
2023-02-03T10:41:05.656Z,5.65
2023-02-03T10:43:50.667Z,5.42
2023-02-03T10:46:29.170Z,5.67
2023-02-03T10:48:57.719Z,6.58
2023-02-03T10:51:27.012Z,5.70
2023-02-03T10:53:55.370Z,6.60
2023-02-03T10:56:25.449Z,6.25
2023-02-03T10:58:55.400Z,7.53
2023-02-03T11:01:31.079Z,6.00
2023-02-03T11:04:00.829Z,7.25
2023-02-03T11:06:29.334Z,7.30
2023-02-03T11:08:57.622Z,7.30
2023-02-03T11:11:34.559Z,7.12
2023-02-03T11:14:07.335Z,6.92
2023-02-03T11:16:39.281Z,6.85
2023-02-03T11:19:20.180Z,7.97
2023-02-03T11:21:56.671Z,8.15
2023-02-03T11:24:25.991Z,7.53
2023-02-03T11:26:58.461Z,8.55
2023-02-03T11:29:31.258Z,7.47
2023-02-03T11:32:01.165Z,7.92
2023-02-03T11:34:34.319Z,8.55
2023-02-03T11:37:06.775Z,9.05
2023-02-03T11:39:35.644Z,8.18
2023-02-03T11:42:05.397Z,9.18
2023-02-03T11:44:33.637Z,8.30
2023-02-03T11:47:04.557Z,9.20
2023-02-03T11:49:37.294Z,8.70
2023-02-03T11:52:07.058Z,8.25
2023-02-03T11:54:42.797Z,9.55
2023-02-03T11:57:15.232Z,8.28
2023-02-03T11:59:56.918Z,8.78
2023-02-03T12:02:35.819Z,9.03
2023-02-03T12:05:14.712Z,8.90
2023-02-03T12:07:53.579Z,9.00
2023-02-03T12:10:35.328Z,9.43
2023-02-03T12:13:08.050Z,8.73
2023-02-03T12:15:52.642Z,9.15
2023-02-03T12:18:25.245Z,8.88
2023-02-03T12:23:28.649Z,8.88
2023-02-03T12:26:15.272Z,8.30
2023-02-03T12:28:45.089Z,8.68
2023-02-03T12:31:20.688Z,8.73
2023-02-03T12:33:53.356Z,9.35
2023-02-03T12:38:59.523Z,8.75
2023-02-03T12:41:29.277Z,9.13
2023-02-03T12:44:01.957Z,8.25
2023-02-03T12:48:59.270Z,8.25
2023-02-03T12:51:29.127Z,8.10
2023-02-03T12:53:58.841Z,8.38
2023-02-03T12:56:28.602Z,8.03
2023-02-03T12:58:58.347Z,7.08
2023-02-03T13:01:28.206Z,7.00
2023-02-03T13:04:07.010Z,6.87
2023-02-03T13:06:48.522Z,5.92
2023-02-03T13:09:27.200Z,5.87
2023-02-03T13:12:05.891Z,5.60
2023-02-03T13:14:44.513Z,5.70
2023-02-03T13:17:14.409Z,5.55
2023-02-03T13:19:44.158Z,5.60
2023-02-03T13:22:15.159Z,4.92
2023-02-03T13:24:47.818Z,4.80
2023-02-03T13:29:45.387Z,4.33
2023-02-03T13:32:19.731Z,4.37
2023-02-03T13:34:52.097Z,4.87
2023-02-03T13:39:52.271Z,4.70
2023-02-03T13:44:57.843Z,4.00
2023-02-03T13:47:27.593Z,3.27
2023-02-03T13:49:59.673Z,3.65
2023-02-03T13:52:35.435Z,3.45
2023-02-03T13:55:04.519Z,3.67
2023-02-03T13:57:34.542Z,4.10
2023-02-03T14:00:04.481Z,4.87
2023-02-03T14:02:34.985Z,3.58
2023-02-03T14:05:04.087Z,4.42
2023-02-03T14:07:33.942Z,3.87
2023-02-03T14:10:15.556Z,4.00
2023-02-03T14:12:54.346Z,3.67
2023-02-03T14:15:32.921Z,3.45
2023-02-03T14:18:02.302Z,4.12
2023-02-03T14:20:32.072Z,4.45
2023-02-03T14:23:01.846Z,4.10
2023-02-03T14:25:30.767Z,4.33
2023-02-03T14:28:00.819Z,3.65
2023-02-03T14:30:29.156Z,4.37
2023-02-03T14:32:59.137Z,4.25
2023-02-03T14:35:31.582Z,3.47
2023-02-03T14:38:01.299Z,3.55
2023-02-03T14:40:47.903Z,3.67
2023-02-03T14:43:17.697Z,3.65
2023-02-03T14:46:05.448Z,3.58
2023-02-03T14:48:38.030Z,3.33
2023-02-03T14:53:38.085Z,3.83
2023-02-03T14:56:13.763Z,3.77
2023-02-03T14:58:47.498Z,3.35
2023-02-03T15:01:27.910Z,3.70
2023-02-03T15:04:15.762Z,3.47
2023-02-03T15:06:45.353Z,3.33
2023-02-03T15:09:26.935Z,3.33
2023-02-03T15:11:55.161Z,4.10
2023-02-03T15:14:27.345Z,4.08
2023-02-03T15:16:57.013Z,3.90
2023-02-03T15:19:26.496Z,3.60
2023-02-03T15:21:55.104Z,3.95
2023-02-03T15:24:25.219Z,3.42
2023-02-03T15:26:54.982Z,3.70
2023-02-03T15:29:32.958Z,3.90
2023-02-03T15:32:05.652Z,4.35
2023-02-03T15:34:39.204Z,3.80
2023-02-03T15:37:08.993Z,4.03
2023-02-03T15:39:45.785Z,4.45
2023-02-03T15:42:30.574Z,3.62
2023-02-03T15:45:00.331Z,3.25
2023-02-03T15:47:33.391Z,4.20
2023-02-03T15:50:06.119Z,3.08
2023-02-03T15:52:35.902Z,2.98
2023-02-03T15:55:05.915Z,3.47
2023-02-03T15:57:34.795Z,3.27
2023-02-03T16:00:04.675Z,3.98
2023-02-03T16:02:34.522Z,3.55
2023-02-03T16:05:07.060Z,2.90
2023-02-03T16:07:35.266Z,3.42
2023-02-03T16:10:03.499Z,3.20
2023-02-03T16:12:35.095Z,3.98
2023-02-03T16:15:03.465Z,3.17
2023-02-03T16:17:33.003Z,3.65
2023-02-03T16:20:14.537Z,4.95
2023-02-03T16:22:43.835Z,3.65
2023-02-03T16:25:22.380Z,3.55
2023-02-03T16:28:15.377Z,3.80
2023-02-03T16:33:48.537Z,3.25
2023-02-03T16:36:34.421Z,4.25
2023-02-03T16:39:21.521Z,3.70
2023-02-03T16:42:07.721Z,3.58
2023-02-03T16:44:53.715Z,3.92
2023-02-03T16:47:41.652Z,4.17
2023-02-03T16:50:38.198Z,3.98
2023-02-03T16:53:01.387Z,3.72
2023-02-03T16:55:29.960Z,4.20
2023-02-03T16:57:58.403Z,5.05
2023-02-03T17:00:26.724Z,4.03
2023-02-03T17:02:56.198Z,3.50
2023-02-03T17:05:24.824Z,3.70
2023-02-03T17:07:53.045Z,3.62
2023-02-03T17:10:21.255Z,3.65
2023-02-03T17:12:51.014Z,4.10
2023-02-03T17:15:19.275Z,3.85
2023-02-03T17:17:47.523Z,3.77
2023-02-03T17:20:15.836Z,4.33
2023-02-03T17:22:44.081Z,4.85
2023-02-03T17:25:12.300Z,4.55
2023-02-03T17:27:40.554Z,4.17
2023-02-03T17:30:09.056Z,4.03
2023-02-03T17:32:37.326Z,4.05
2023-02-03T17:35:05.829Z,4.42
2023-02-03T17:37:34.310Z,4.67
2023-02-03T17:56:28.726Z,5.12
2023-02-03T17:58:57.486Z,4.10
2023-02-03T18:01:28.499Z,3.92
2023-02-03T18:03:57.877Z,4.10
2023-02-03T18:06:26.794Z,5.10
2023-02-03T18:08:56.934Z,5.28
2023-02-03T18:11:25.153Z,3.85
2023-02-03T18:13:53.383Z,4.25
2023-02-03T18:16:24.310Z,4.58
2023-02-03T18:18:53.640Z,4.25
2023-02-03T18:21:22.497Z,4.10
2023-02-03T18:23:51.481Z,3.85
2023-02-03T18:26:20.427Z,3.87
2023-02-03T18:28:50.198Z,4.17
2023-02-03T18:31:18.625Z,5.60
2023-02-03T18:33:47.722Z,4.65
2023-02-03T18:36:16.639Z,4.15
2023-02-03T18:38:45.736Z,5.50
2023-02-03T18:41:18.124Z,4.20
2023-02-03T18:43:48.886Z,5.95
2023-02-03T18:46:18.222Z,4.75
2023-02-03T18:48:46.485Z,4.55
2023-02-03T18:51:15.480Z,5.58
2023-02-03T18:53:44.925Z,4.05
2023-02-03T18:56:14.680Z,4.08
2023-02-03T18:58:42.982Z,4.67
2023-02-03T19:01:12.738Z,4.50
2023-02-03T19:03:40.991Z,4.00
2023-02-03T19:06:09.796Z,3.95
2023-02-03T19:08:38.006Z,3.75
2023-02-03T19:11:06.210Z,4.58
2023-02-03T19:13:34.441Z,3.70
2023-02-03T19:16:02.748Z,4.35
2023-02-03T19:18:32.718Z,4.80
2023-02-03T19:21:00.944Z,4.58
2023-02-03T19:23:29.159Z,6.72
2023-02-03T19:25:57.357Z,5.30
2023-02-03T19:28:30.773Z,5.15
2023-02-03T19:31:02.937Z,6.60
2023-02-03T19:33:25.455Z,5.62
2023-02-03T19:35:53.665Z,6.25
2023-02-03T19:38:21.895Z,5.62
2023-02-03T19:40:50.172Z,6.58
2023-02-03T19:43:18.420Z,6.12
2023-02-03T19:45:46.610Z,5.67
2023-02-03T19:48:14.830Z,5.97
2023-02-03T19:50:44.687Z,5.60
2023-02-03T19:53:16.360Z,5.90
2023-02-03T19:55:45.019Z,5.25
2023-02-03T19:58:15.074Z,5.30
2023-02-03T20:00:44.095Z,5.97
2023-02-03T20:03:12.323Z,6.85
2023-02-03T20:05:40.900Z,7.28
2023-02-03T20:08:10.745Z,5.67
2023-02-03T20:10:39.524Z,5.50
2023-02-03T20:13:08.380Z,6.12
2023-02-03T20:15:36.671Z,4.97
2023-02-03T20:18:06.540Z,5.83
2023-02-03T20:20:35.141Z,6.53
2023-02-03T20:23:03.457Z,5.65
2023-02-03T20:25:31.654Z,6.10
2023-02-03T20:28:01.606Z,5.92
2023-02-03T20:30:30.134Z,6.10
2023-02-03T20:32:58.524Z,7.05
2023-02-03T20:35:26.812Z,7.67
2023-02-03T20:37:55.056Z,6.00
2023-02-03T20:40:24.214Z,6.28
2023-02-03T20:42:53.096Z,7.72
2023-02-03T20:45:22.753Z,5.83
2023-02-03T20:47:51.431Z,5.70
2023-02-03T20:50:23.630Z,6.25
2023-02-03T20:52:52.047Z,5.17
2023-02-03T20:55:21.780Z,5.80
2023-02-03T20:57:51.392Z,6.20
2023-02-03T21:00:20.980Z,6.42
2023-02-03T21:03:07.477Z,6.17
2023-02-03T21:05:39.942Z,5.45
2023-02-03T21:08:12.663Z,6.30
2023-02-03T21:13:22.590Z,5.17
2023-02-03T21:15:51.769Z,7.42
2023-02-03T21:18:21.543Z,4.70
2023-02-03T21:20:49.772Z,4.42
2023-02-03T21:23:18.001Z,4.22
2023-02-03T21:25:46.264Z,4.60
2023-02-03T21:28:16.021Z,5.00
2023-02-03T21:30:44.248Z,4.53
2023-02-03T21:33:22.746Z,4.92
2023-02-03T21:35:51.007Z,4.72
2023-02-03T21:38:20.769Z,4.45
2023-02-03T21:40:48.996Z,4.20
2023-02-03T21:43:18.409Z,4.40
2023-02-03T21:45:46.661Z,4.50
2023-02-03T21:48:19.323Z,5.08
2023-02-03T21:50:47.570Z,4.45
2023-02-03T21:53:17.374Z,4.50
2023-02-03T21:55:45.602Z,4.15
2023-02-03T21:58:18.289Z,4.28
2023-02-03T22:00:50.263Z,3.77
2023-02-03T22:03:28.757Z,4.42
2023-02-03T22:06:10.270Z,4.35
2023-02-03T22:08:45.736Z,4.25
2023-02-03T22:11:14.657Z,4.17
2023-02-03T22:13:43.347Z,4.47
2023-02-03T22:16:13.424Z,5.00
2023-02-03T22:18:41.699Z,5.47
2023-02-03T22:21:09.942Z,7.25
2023-02-03T22:23:38.524Z,4.47
2023-02-03T22:26:07.600Z,4.72
2023-02-03T22:28:36.095Z,5.50
2023-02-03T22:31:05.025Z,4.50
2023-02-03T22:33:33.843Z,4.55
2023-02-03T22:36:03.197Z,5.22
2023-02-03T22:38:31.445Z,4.87
2023-02-03T22:40:59.946Z,4.65
2023-02-03T22:43:30.044Z,4.33
2023-02-03T22:45:58.432Z,5.05
2023-02-03T22:48:26.605Z,4.47
2023-02-03T22:50:54.998Z,4.75
2023-02-03T22:53:23.267Z,5.50
2023-02-03T22:55:51.576Z,6.00
2023-02-03T22:58:19.801Z,4.10
2023-02-03T23:00:48.108Z,4.90
2023-02-03T23:03:16.524Z,5.17
2023-02-03T23:05:45.021Z,5.00
2023-02-03T23:08:13.234Z,4.12
2023-02-03T23:10:41.453Z,3.75
2023-02-03T23:13:09.687Z,3.75
2023-02-03T23:15:38.153Z,4.47
2023-02-03T23:18:06.439Z,5.03
2023-02-03T23:20:34.728Z,4.75
2023-02-03T23:23:02.960Z,4.75
2023-02-03T23:25:31.246Z,4.05
2023-02-03T23:27:59.488Z,4.75
2023-02-03T23:30:27.674Z,4.37
2023-02-03T23:32:55.880Z,4.22
2023-02-03T23:35:42.799Z,4.08
2023-02-03T23:38:11.037Z,4.62
2023-02-03T23:40:39.320Z,3.75
2023-02-03T23:43:07.624Z,4.55
2023-02-03T23:45:35.836Z,4.87
2023-02-03T23:48:04.110Z,4.20
2023-02-03T23:50:32.774Z,4.65
2023-02-03T23:53:01.181Z,5.08
2023-02-03T23:55:31.045Z,4.15
2023-02-03T23:57:59.341Z,5.95
